createdAt,value
2022-08-15T04:19:46.045Z,1.95
2022-08-15T04:22:28.800Z,2.45
2022-08-15T04:25:17.950Z,2.35
2022-08-15T04:27:53.490Z,1.65
2022-08-15T04:30:33.455Z,1.40
2022-08-15T04:34:22.474Z,2.47
2022-08-15T04:36:18.722Z,3.72
2022-08-15T04:38:50.280Z,2.22
2022-08-15T04:41:35.538Z,1.90
2022-08-15T04:44:17.135Z,1.83
2022-08-15T04:46:47.030Z,1.70
2022-08-15T04:49:16.990Z,1.83
2022-08-15T04:51:45.724Z,2.17
2022-08-15T04:54:15.510Z,3.75
2022-08-15T04:56:51.714Z,2.47
2022-08-15T04:59:34.045Z,1.83
2022-08-15T05:02:04.514Z,1.88
2022-08-15T05:04:50.263Z,2.42
2022-08-15T05:07:18.031Z,2.33
2022-08-15T05:09:59.702Z,3.50
2022-08-15T05:12:36.760Z,2.13
2022-08-15T05:15:05.489Z,1.83
2022-08-15T05:17:56.031Z,5.03
2022-08-15T05:20:22.495Z,1.60
2022-08-15T05:23:01.803Z,1.50
2022-08-15T05:25:41.976Z,2.40
2022-08-15T05:28:30.514Z,1.58
2022-08-15T05:31:13.760Z,6.07
2022-08-15T05:33:57.417Z,2.35
2022-08-15T05:36:30.165Z,1.73
2022-08-15T05:39:22.459Z,9.05
2022-08-15T05:42:31.285Z,9.90
2022-08-15T05:45:29.263Z,2.20
2022-08-15T05:48:19.932Z,2.15
2022-08-15T05:51:02.194Z,3.42
2022-08-15T05:53:54.496Z,5.93
2022-08-15T05:56:51.228Z,2.28
2022-08-15T05:59:19.776Z,1.73
2022-08-15T06:02:35.111Z,1.75
2022-08-15T06:05:03.818Z,2.00
2022-08-15T06:07:52.147Z,3.72
2022-08-15T06:10:37.727Z,1.77
2022-08-15T06:13:20.136Z,1.60
2022-08-15T06:16:45.669Z,5.60
2022-08-15T06:19:13.677Z,2.10
2022-08-15T06:21:58.346Z,2.17
2022-08-15T06:24:50.152Z,2.08
2022-08-15T06:27:40.027Z,3.00
2022-08-15T06:30:10.972Z,1.67
2022-08-15T06:32:52.781Z,2.35
2022-08-15T06:35:36.491Z,3.92
2022-08-15T06:38:31.201Z,4.72
2022-08-15T06:41:26.397Z,3.72
2022-08-15T06:43:59.944Z,2.67
2022-08-15T06:46:43.598Z,2.33
2022-08-15T06:49:23.666Z,2.40
2022-08-15T06:54:36.290Z,2.55
2022-08-15T06:57:20.252Z,2.35
2022-08-15T06:59:58.373Z,1.50
2022-08-15T07:03:04.458Z,1.67
2022-08-15T07:05:43.803Z,1.70
2022-08-15T07:08:28.880Z,2.05
2022-08-15T07:11:09.232Z,1.73
2022-08-15T07:14:20.057Z,3.65
2022-08-15T07:17:06.530Z,3.42
2022-08-15T07:19:36.530Z,1.83
2022-08-15T07:22:14.255Z,3.47
2022-08-15T07:24:53.799Z,2.40
2022-08-15T07:27:32.086Z,2.03
2022-08-15T07:30:31.018Z,2.22
2022-08-15T07:33:00.017Z,3.25
2022-08-15T07:35:34.724Z,1.95
2022-08-15T07:38:22.074Z,3.25
2022-08-15T07:41:38.428Z,2.00
2022-08-15T07:47:22.602Z,2.40
2022-08-15T07:50:05.223Z,1.50
2022-08-15T07:52:48.597Z,3.67
2022-08-15T07:56:14.470Z,4.15
2022-08-15T07:58:24.470Z,3.75
2022-08-15T08:04:06.836Z,3.20
2022-08-15T08:06:51.171Z,2.50
2022-08-15T08:09:34.192Z,2.50
2022-08-15T08:12:35.471Z,3.08
2022-08-15T08:15:37.382Z,2.28
2022-08-15T08:18:32.076Z,2.40
2022-08-15T08:21:08.900Z,2.40
2022-08-15T08:23:54.464Z,4.05
2022-08-15T08:26:34.119Z,2.20
2022-08-15T08:29:20.726Z,2.15
2022-08-15T08:32:25.761Z,2.10
2022-08-15T08:35:08.583Z,3.10
2022-08-15T08:37:55.378Z,1.73
2022-08-15T08:40:58.970Z,2.05
2022-08-15T08:43:48.044Z,2.28
2022-08-15T08:46:39.100Z,1.83
2022-08-15T08:49:08.694Z,1.88
2022-08-15T08:52:12.326Z,2.10
2022-08-15T08:55:05.074Z,2.17
2022-08-15T08:57:57.799Z,1.67
2022-08-15T09:00:33.147Z,3.13
2022-08-15T09:03:11.593Z,2.92
2022-08-15T09:05:50.258Z,2.72
2022-08-15T09:08:36.464Z,5.13
2022-08-15T09:11:10.754Z,2.17
2022-08-15T09:13:44.502Z,2.75
2022-08-15T09:16:24.620Z,1.90
2022-08-15T09:19:05.811Z,2.03
2022-08-15T09:21:43.236Z,1.70
2022-08-15T09:24:37.546Z,2.10
2022-08-15T09:27:56.032Z,2.70
2022-08-15T09:30:44.944Z,1.50
2022-08-15T09:33:44.691Z,2.65
2022-08-15T09:36:41.055Z,2.10
2022-08-15T09:39:52.366Z,1.92
2022-08-15T09:43:13.937Z,2.60
2022-08-15T09:45:59.958Z,1.70
2022-08-15T09:48:48.475Z,2.55
2022-08-15T09:51:37.420Z,1.50
2022-08-15T09:54:32.755Z,2.65
2022-08-15T09:57:32.051Z,1.58
2022-08-15T10:00:21.275Z,3.40
2022-08-15T10:02:52.885Z,2.05
2022-08-15T10:05:40.960Z,1.83
2022-08-15T10:08:09.532Z,1.80
2022-08-15T10:10:55.359Z,2.47
2022-08-15T10:13:45.218Z,1.60
2022-08-15T10:16:40.384Z,5.35
2022-08-15T10:19:26.715Z,3.83
2022-08-15T10:22:23.300Z,3.25
2022-08-15T10:25:13.530Z,2.22
2022-08-15T10:28:38.874Z,1.80
2022-08-15T10:31:00.391Z,4.35
2022-08-15T10:33:35.155Z,1.88
2022-08-15T10:36:20.846Z,2.63
2022-08-15T10:39:31.813Z,4.40
2022-08-15T10:42:51.268Z,2.55
2022-08-15T10:45:46.971Z,3.08
2022-08-15T10:48:44.981Z,3.70
2022-08-15T10:51:42.675Z,2.47
2022-08-15T10:54:36.991Z,1.60
2022-08-15T10:57:10.392Z,1.70
2022-08-15T10:59:45.451Z,1.80
2022-08-15T11:02:36.867Z,4.68
2022-08-15T11:05:11.663Z,1.85
2022-08-15T11:07:57.519Z,2.13
2022-08-15T11:10:29.331Z,1.63
2022-08-15T11:13:10.153Z,1.95
2022-08-15T11:15:56.952Z,1.83
2022-08-15T11:18:35.551Z,1.40
2022-08-15T11:21:25.314Z,1.95
2022-08-15T11:26:33.446Z,2.55
2022-08-15T11:29:12.301Z,6.25
2022-08-15T11:31:47.226Z,6.07
2022-08-15T11:34:42.713Z,2.90
2022-08-15T11:37:19.492Z,3.20
2022-08-15T11:39:59.720Z,2.92
2022-08-15T11:42:58.222Z,2.92
2022-08-15T11:45:46.380Z,13.20
2022-08-15T11:48:35.709Z,4.22
2022-08-15T11:51:11.006Z,4.10
2022-08-15T11:54:05.974Z,2.55
2022-08-15T11:56:58.583Z,2.38
2022-08-15T11:59:34.535Z,2.40
2022-08-15T12:02:31.722Z,2.40
2022-08-15T12:05:44.578Z,2.22
2022-08-15T12:08:00.163Z,2.10
2022-08-15T12:10:35.018Z,2.55
2022-08-15T12:13:02.244Z,3.70
2022-08-15T12:15:32.601Z,2.20
2022-08-15T12:18:08.861Z,2.00
2022-08-15T12:21:00.230Z,1.95
2022-08-15T12:23:34.253Z,2.05
2022-08-15T12:26:37.712Z,1.90
2022-08-15T12:28:58.588Z,3.28
2022-08-15T12:31:35.492Z,2.35
2022-08-15T12:34:28.640Z,2.00
2022-08-15T12:37:04.223Z,1.98
2022-08-15T12:39:33.732Z,2.15
2022-08-15T12:42:49.511Z,2.40
2022-08-15T12:44:49.744Z,2.10
2022-08-15T12:47:17.168Z,3.90
2022-08-15T12:49:48.166Z,2.05
2022-08-15T12:52:18.658Z,1.52
2022-08-15T12:54:50.660Z,2.13
2022-08-15T12:57:19.005Z,1.42
2022-08-15T12:59:49.737Z,1.55
2022-08-15T13:02:47.307Z,1.40
2022-08-15T13:05:12.628Z,1.85
2022-08-15T13:08:06.509Z,1.77
2022-08-15T13:11:01.683Z,4.60
2022-08-15T13:13:17.950Z,1.65
2022-08-15T13:15:45.627Z,1.02
2022-08-15T13:18:19.725Z,1.15
2022-08-15T13:21:08.447Z,0.88
2022-08-15T13:24:11.571Z,1.10
2022-08-15T13:26:27.989Z,0.93
2022-08-15T13:29:01.235Z,0.63
2022-08-15T13:31:28.372Z,1.05
2022-08-15T13:33:59.091Z,0.60
2022-08-15T13:36:30.802Z,0.75
2022-08-15T13:39:14.223Z,0.80
2022-08-15T13:42:04.718Z,0.73
2022-08-15T13:44:35.010Z,0.85
2022-08-15T13:47:09.306Z,1.00
2022-08-15T13:49:40.655Z,0.80
2022-08-15T13:52:45.784Z,0.70
2022-08-15T13:54:59.688Z,0.70
2022-08-15T13:57:29.134Z,0.75
2022-08-15T13:59:57.825Z,0.77
2022-08-15T14:02:32.539Z,1.73
2022-08-15T14:05:05.311Z,1.17
2022-08-15T14:07:51.009Z,1.10
2022-08-15T14:11:01.169Z,1.00
2022-08-15T14:13:13.908Z,1.38
2022-08-15T14:16:07.817Z,1.00
2022-08-15T14:18:50.475Z,1.00
2022-08-15T14:21:27.527Z,1.40
2022-08-15T14:24:00.398Z,1.15
2022-08-15T14:27:12.021Z,0.95
2022-08-15T14:32:50.754Z,1.27
2022-08-15T14:35:17.028Z,1.38
2022-08-15T14:40:40.044Z,1.33
2022-08-15T14:43:08.778Z,1.20
2022-08-15T14:46:33.597Z,1.30
2022-08-15T14:48:47.498Z,1.33
2022-08-15T14:52:00.467Z,1.30
2022-08-15T14:54:12.390Z,2.15
2022-08-15T14:56:56.745Z,1.30
2022-08-15T14:59:23.754Z,1.45
2022-08-15T15:01:58.472Z,1.95
2022-08-15T15:04:26.723Z,2.35
2022-08-15T15:06:54.795Z,1.27
2022-08-15T15:09:25.975Z,1.40
2022-08-15T15:11:53.433Z,1.63
2022-08-15T15:14:25.430Z,1.50
2022-08-15T15:16:56.399Z,1.30
2022-08-15T15:19:39.495Z,1.45
2022-08-15T15:22:10.007Z,1.40
2022-08-15T15:24:39.233Z,1.48
2022-08-15T15:27:10.589Z,1.52
2022-08-15T15:29:47.446Z,1.33
2022-08-15T15:32:30.982Z,1.95
2022-08-15T15:35:06.437Z,1.95
2022-08-15T15:37:35.673Z,1.40
2022-08-15T15:40:05.504Z,1.73
2022-08-15T15:42:33.915Z,1.50
2022-08-15T15:45:04.642Z,1.50
2022-08-15T15:47:38.450Z,1.70
2022-08-15T15:50:26.172Z,1.40
2022-08-15T15:53:00.628Z,1.30
2022-08-15T15:55:29.107Z,1.77
2022-08-15T15:58:27.499Z,3.90
2022-08-15T16:00:44.758Z,3.53
2022-08-15T16:03:16.699Z,1.50
2022-08-15T16:08:43.114Z,1.55
2022-08-15T16:11:25.508Z,1.50
2022-08-15T16:14:05.321Z,2.08
2022-08-15T16:16:58.200Z,1.38
2022-08-15T16:19:32.710Z,1.30
2022-08-15T16:22:19.714Z,1.38
2022-08-15T16:25:05.203Z,3.28
2022-08-15T16:27:41.722Z,1.60
2022-08-15T16:30:29.770Z,2.50
2022-08-15T16:33:16.706Z,1.75
2022-08-15T16:35:56.033Z,8.40
2022-08-15T16:39:05.292Z,3.88
2022-08-15T16:41:38.389Z,2.87
2022-08-15T16:44:25.220Z,2.42
2022-08-15T16:47:25.576Z,2.65
2022-08-15T16:50:18.261Z,1.50
2022-08-15T16:53:00.124Z,1.50
2022-08-15T16:55:33.448Z,2.00
2022-08-15T16:58:35.830Z,2.65
2022-08-15T17:01:10.394Z,3.75
2022-08-15T17:04:02.113Z,2.05
2022-08-15T17:07:02.120Z,32.63
2022-08-15T17:10:02.763Z,32.55
2022-08-15T17:12:54.839Z,13.50
2022-08-15T17:15:54.749Z,25.30
2022-08-15T17:18:44.704Z,14.75
2022-08-15T17:21:19.586Z,5.70
2022-08-15T17:24:54.967Z,4.50
2022-08-15T17:27:34.126Z,3.13
2022-08-15T17:30:01.419Z,3.67
2022-08-15T17:32:30.443Z,3.47
2022-08-15T17:35:00.199Z,3.78
2022-08-15T17:37:27.663Z,3.92
2022-08-15T17:40:34.283Z,2.67
2022-08-15T17:43:07.444Z,1.95
2022-08-15T17:45:45.096Z,1.65
2022-08-15T17:48:51.320Z,2.53
2022-08-15T17:51:31.941Z,2.10
2022-08-15T17:54:01.336Z,2.13
2022-08-15T17:56:44.496Z,4.53
2022-08-15T17:59:23.163Z,3.63
2022-08-15T18:01:56.134Z,3.38
2022-08-15T18:04:31.229Z,2.40
2022-08-15T18:06:58.483Z,4.15
2022-08-15T18:10:24.720Z,3.53
2022-08-15T18:12:18.448Z,1.85
2022-08-15T18:14:45.819Z,2.08
2022-08-15T18:17:32.568Z,2.17
2022-08-15T18:20:27.610Z,1.83
2022-08-15T18:23:08.615Z,1.55
2022-08-15T18:25:47.720Z,2.28
2022-08-15T18:28:33.838Z,2.22
2022-08-15T18:31:20.382Z,1.85
2022-08-15T18:34:02.888Z,2.30
2022-08-15T18:36:54.389Z,1.70
2022-08-15T18:39:56.765Z,6.40
2022-08-15T18:42:46.589Z,4.18
2022-08-15T18:45:37.844Z,1.52
2022-08-15T18:48:35.858Z,3.85
2022-08-15T18:51:10.588Z,2.88
2022-08-15T18:53:57.097Z,1.60
2022-08-15T18:56:32.364Z,2.40
2022-08-15T18:59:15.778Z,2.08
2022-08-15T19:02:20.550Z,1.83
2022-08-15T19:05:05.909Z,1.60
2022-08-15T19:07:49.710Z,2.00
2022-08-15T19:10:27.103Z,2.42
2022-08-15T19:13:14.877Z,3.03
2022-08-15T19:16:18.293Z,1.58
2022-08-15T19:19:02.874Z,1.50
2022-08-15T19:21:31.331Z,1.60
2022-08-15T19:24:01.448Z,1.55
2022-08-15T19:26:53.469Z,2.53
2022-08-15T19:29:34.511Z,3.10
2022-08-15T19:32:20.996Z,1.70
2022-08-15T19:35:05.670Z,1.75
2022-08-15T19:40:18.300Z,1.85
2022-08-15T19:43:11.062Z,1.67
2022-08-15T19:45:52.828Z,1.85
2022-08-15T19:48:33.703Z,1.50
2022-08-15T19:51:39.497Z,1.60
2022-08-15T19:55:19.411Z,1.83
2022-08-15T19:57:52.853Z,2.08
2022-08-15T20:00:30.545Z,1.50
2022-08-15T20:03:15.059Z,2.30
2022-08-15T20:06:05.230Z,1.40
2022-08-15T20:08:59.208Z,2.40
2022-08-15T20:11:48.147Z,2.42
2022-08-15T20:14:46.987Z,1.45
2022-08-15T20:17:58.346Z,1.85
2022-08-15T20:20:44.482Z,3.40
2022-08-15T20:23:42.805Z,1.60
2022-08-15T20:26:36.593Z,1.50
2022-08-15T20:29:32.085Z,3.90
2022-08-15T20:32:23.564Z,1.42
2022-08-15T20:35:20.005Z,1.52
2022-08-15T20:38:07.181Z,1.75
2022-08-15T20:41:11.125Z,1.42
2022-08-15T20:43:51.056Z,1.15
2022-08-15T20:46:44.856Z,1.45
2022-08-15T20:49:24.385Z,1.40
2022-08-15T20:52:41.446Z,1.10
2022-08-15T20:55:02.333Z,2.45
2022-08-15T20:57:40.659Z,1.35
2022-08-15T21:01:11.258Z,2.03
2022-08-15T21:03:12.685Z,1.80
2022-08-15T21:06:20.152Z,1.10
2022-08-15T21:09:03.051Z,1.25
2022-08-15T21:11:55.380Z,1.90
2022-08-15T21:15:09.247Z,1.27
2022-08-15T21:17:56.936Z,1.27
2022-08-15T21:20:34.581Z,1.50
2022-08-15T21:23:13.506Z,9.18
2022-08-15T21:25:53.958Z,1.20
2022-08-15T21:28:56.965Z,1.08
2022-08-15T21:31:31.331Z,1.00
2022-08-15T21:34:03.939Z,1.20
2022-08-15T21:36:35.435Z,1.15
2022-08-15T21:39:12.403Z,1.13
2022-08-15T21:41:56.169Z,1.30
2022-08-15T21:44:35.620Z,1.17
2022-08-15T21:47:32.504Z,2.17
2022-08-15T21:52:27.765Z,1.88
2022-08-15T21:54:58.637Z,1.17
2022-08-15T21:57:40.458Z,1.10
2022-08-15T22:00:25.945Z,1.20
2022-08-15T22:03:07.542Z,1.25
2022-08-15T22:05:41.938Z,1.05
2022-08-15T22:08:25.741Z,1.08
2022-08-15T22:10:56.608Z,1.00
2022-08-15T22:13:25.458Z,1.30
2022-08-15T22:15:53.396Z,1.30
2022-08-15T22:18:29.062Z,2.53
2022-08-15T22:21:02.268Z,1.00
2022-08-15T22:23:33.500Z,1.92
2022-08-15T22:26:36.002Z,1.90
2022-08-15T22:29:00.500Z,1.00
2022-08-15T22:31:44.886Z,1.17
2022-08-15T22:34:19.927Z,2.15
2022-08-15T22:36:50.438Z,1.08
2022-08-15T22:39:19.376Z,1.23
2022-08-15T22:41:54.391Z,2.10
2022-08-15T22:44:31.219Z,1.10
2022-08-15T22:47:01.710Z,1.20
2022-08-15T22:49:36.658Z,1.30
2022-08-15T22:52:19.362Z,1.48
2022-08-15T22:54:50.514Z,1.95
2022-08-15T22:57:58.750Z,1.33
2022-08-15T23:00:19.198Z,1.40
2022-08-15T23:02:49.753Z,1.45
2022-08-15T23:05:27.743Z,2.42
2022-08-15T23:08:05.732Z,1.50
2022-08-15T23:10:41.895Z,1.60
2022-08-15T23:13:15.535Z,1.30
2022-08-15T23:15:52.510Z,1.45
2022-08-15T23:18:28.613Z,1.50
2022-08-15T23:20:57.241Z,1.42
2022-08-15T23:23:36.725Z,1.35
2022-08-15T23:26:32.097Z,1.60
2022-08-15T23:28:58.425Z,2.35
2022-08-15T23:31:37.611Z,1.60
2022-08-15T23:34:16.988Z,1.55
2022-08-15T23:37:28.358Z,2.35
2022-08-15T23:39:55.169Z,1.58
2022-08-15T23:42:27.740Z,1.40
2022-08-15T23:44:56.382Z,1.38
2022-08-15T23:47:27.677Z,1.70
2022-08-15T23:49:55.872Z,5.68
2022-08-15T23:52:29.674Z,1.40
2022-08-15T23:55:08.684Z,1.40
2022-08-15T23:57:36.506Z,1.30
